Time;durP1;ratioP1;P1;durP2;ratioP2;P2;SDS_P1;SDS_P2;PMS_P1;PMS_P2;Temp;Humidity;BMP_temperature;BMP_pressure;BME280_temperature;BME280_humidity;BME280_pressure;Samples;Min_cycle;Max_cycle;Signal;HPM_P1;HPM_P2
2023/12/15 00:00:03;;;;;;;;;;;;;;;3.74;100.00;97539.69;5064739;28;20140;-70
2023/12/15 00:02:29;;;;;;;;;;;;;;;3.74;100.00;97537.09;5064423;28;19956;-70
2023/12/15 00:04:55;;;;;;;;;;;;;;;3.75;100.00;97541.34;5064102;28;19999;-70
2023/12/15 00:07:21;;;;;;;;;;;;;;;3.74;100.00;97539.69;5064575;28;19960;-70
2023/12/15 00:09:46;;;;;;;;;;;;;;;3.74;100.00;97545.72;5064235;28;19965;-73
2023/12/15 00:12:12;;;;;;;;;;;;;;;3.75;100.00;97536.16;5064237;28;20116;-73
2023/12/15 00:14:38;;;;;;;;;;;;;;;3.75;100.00;97539.53;5064009;28;19957;-73
2023/12/15 00:17:04;;;;;;;;;;;;;;;3.74;100.00;97548.31;5064494;28;19986;-73
2023/12/15 00:19:30;;;;;;;;;;;;;;;3.73;100.00;97544.06;5064335;28;19957;-73
2023/12/15 00:21:56;;;;;;;;;;;;;;;3.74;100.00;97557.84;5064416;28;20269;-73
2023/12/15 00:24:22;;;;;;;;;;;;;;;3.76;100.00;97555.91;5064376;28;19959;-73
2023/12/15 00:26:48;;;;;;;;;;;;;;;3.75;100.00;97555.13;5064324;28;19957;-73
2023/12/15 00:29:13;;;;;;;;;;;;;;;3.77;100.00;97560.97;5064555;28;20080;-70
2023/12/15 00:31:39;;;;;;;;;;;;;;;3.77;100.00;97560.16;5064454;28;19960;-74
2023/12/15 00:34:05;;;;;;;;;;;;;;;3.77;100.00;97557.56;5063798;28;19957;-75
2023/12/15 00:36:31;;;;;;;;;;;;;;;3.76;100.00;97558.50;5063902;28;20232;-74
2023/12/15 00:38:57;;;;;;;;;;;;;;;3.75;100.00;97565.50;5063823;28;19961;-74
2023/12/15 00:41:23;;;;;;;;;;;;;;;3.76;100.00;97568.88;5066268;28;19961;-75
2023/12/15 00:43:49;;;;;;;;;;;;;;;3.75;100.00;97570.69;5067831;28;19957;-74
2023/12/15 00:46:15;;;;;;;;;;;;;;;3.75;100.00;97578.47;5068329;28;19954;-71
2023/12/15 00:48:41;;;;;;;;;;;;;;;3.75;100.00;97585.44;5068311;28;20251;-70
2023/12/15 00:51:07;;;;;;;;;;;;;;;3.75;100.00;97582.84;5068166;28;20225;-70
2023/12/15 00:53:33;;;;;;;;;;;;;;;3.76;100.00;97592.25;5068101;28;19979;-70
2023/12/15 00:55:59;;;;;;;;;;;;;;;3.76;100.00;97593.09;5068122;28;19951;-70
2023/12/15 00:58:25;;;;;;;;;;;;;;;3.77;100.00;97584.31;5067080;28;19962;-70
2023/12/15 01:00:51;;;;;;;;;;;;;;;3.77;100.00;97593.88;5067647;28;20001;-70
2023/12/15 01:03:17;;;;;;;;;;;;;;;3.78;100.00;97598.94;5067557;28;20040;-70
2023/12/15 01:05:43;;;;;;;;;;;;;;;3.80;100.00;97603.97;5068235;28;19960;-70
2023/12/15 01:08:09;;;;;;;;;;;;;;;3.80;100.00;97603.97;5067604;28;19957;-70
2023/12/15 01:10:34;;;;;;;;;;;;;;;3.80;100.00;97609.16;5067671;28;20032;-69
2023/12/15 01:13:00;;;;;;;;;;;;;;;3.81;100.00;97613.41;5067674;28;19958;-70
2023/12/15 01:15:26;;;;;;;;;;;;;;;3.80;100.00;97614.34;5067494;28;19955;-70
2023/12/15 01:17:52;;;;;;;;;;;;;;;3.79;100.00;97623.09;5067550;28;20190;-69
2023/12/15 01:20:18;;;;;;;;;;;;;;;3.76;100.00;97632.00;5067679;28;19965;-70
2023/12/15 01:22:44;;;;;;;;;;;;;;;3.77;100.00;97632.81;5067175;28;19986;-70
2023/12/15 01:25:10;;;;;;;;;;;;;;;3.75;100.00;97632.94;5067719;28;19960;-73
2023/12/15 01:27:36;;;;;;;;;;;;;;;3.77;100.00;97643.19;5067623;28;19961;-70
2023/12/15 01:30:02;;;;;;;;;;;;;;;3.75;100.00;97643.31;5067313;28;20000;-70
2023/12/15 01:32:28;;;;;;;;;;;;;;;3.77;100.00;97651.78;5067101;28;19982;-70
2023/12/15 01:34:54;;;;;;;;;;;;;;;3.77;100.00;97654.38;5067575;28;20199;-70
2023/12/15 01:37:20;;;;;;;;;;;;;;;3.78;100.00;97662.97;5067323;28;20123;-70
2023/12/15 01:39:46;;;;;;;;;;;;;;;3.80;100.00;97669.69;5067071;28;19956;-69
2023/12/15 01:42:12;;;;;;;;;;;;;;;3.79;100.00;97675.00;5067083;28;20239;-75
2023/12/15 01:44:39;;;;;;;;;;;;;;;3.80;100.00;97680.06;5067113;28;19966;-70
2023/12/15 01:47:05;;;;;;;;;;;;;;;3.82;100.00;97682.47;5067179;28;20030;-70
2023/12/15 01:49:31;;;;;;;;;;;;;;;3.80;100.00;97682.66;5067041;28;20021;-70
2023/12/15 01:51:57;;;;;;;;;;;;;;;3.80;100.00;97674.03;5048457;28;19980;-70
2023/12/15 01:54:23;;;;;;;;;;;;;;;3.79;100.00;97673.22;5067153;28;19956;-70
2023/12/15 01:56:48;;;;;;;;;;;;;;;3.80;100.00;97671.44;5066888;28;19962;-70
2023/12/15 01:59:14;;;;;;;;;;;;;;;3.80;100.00;97671.44;5066010;28;20150;-71
2023/12/15 02:01:41;;;;;;;;;;;;;;;3.79;100.00;97675.81;5067040;28;19958;-73
2023/12/15 02:04:07;;;;;;;;;;;;;;;3.79;100.00;97678.41;5066531;28;20136;-70
2023/12/15 02:06:33;;;;;;;;;;;;;;;3.78;100.00;97679.38;5066517;28;20030;-70
2023/12/15 02:08:59;;;;;;;;;;;;;;;3.78;100.00;97676.78;5066741;28;19955;-69
2023/12/15 02:11:24;;;;;;;;;;;;;;;3.78;100.00;97678.53;5066498;28;19968;-70
2023/12/15 02:13:50;;;;;;;;;;;;;;;3.78;100.00;97678.53;5066731;28;19987;-70
2023/12/15 02:16:16;;;;;;;;;;;;;;;3.77;100.00;97690.69;5066465;28;19963;-70
2023/12/15 02:18:42;;;;;;;;;;;;;;;3.77;100.00;97692.50;5066569;28;19960;-66
2023/12/15 02:21:08;;;;;;;;;;;;;;;3.77;100.00;97693.31;5066124;28;20119;-73
2023/12/15 02:23:33;;;;;;;;;;;;;;;3.77;100.00;97705.47;5048721;28;20243;-73
2023/12/15 02:25:59;;;;;;;;;;;;;;;3.75;100.00;97700.41;5048667;28;19955;-73
2023/12/15 02:28:25;;;;;;;;;;;;;;;3.76;100.00;97698.63;5065952;28;19941;-73
2023/12/15 02:30:51;;;;;;;;;;;;;;;3.75;100.00;97702.19;5066499;28;20187;-73
2023/12/15 02:33:17;;;;;;;;;;;;;;;3.76;100.00;97701.22;5066631;28;19981;-73
2023/12/15 02:35:43;;;;;;;;;;;;;;;3.76;100.00;97706.41;5066328;28;19969;-72
2023/12/15 02:38:09;;;;;;;;;;;;;;;3.76;100.00;97706.41;5065782;28;20023;-73
2023/12/15 02:40:35;;;;;;;;;;;;;;;3.75;100.00;97707.38;5065972;28;20029;-70
2023/12/15 02:43:01;;;;;;;;;;;;;;;3.73;100.00;97717.91;5066322;28;19954;-70
2023/12/15 02:45:26;;;;;;;;;;;;;;;3.70;100.00;97719.97;5066299;28;20049;-70
2023/12/15 02:47:52;;;;;;;;;;;;;;;3.68;100.00;97727.09;5065973;28;19959;-69
2023/12/15 02:50:18;;;;;;;;;;;;;;;3.67;100.00;97734.03;5066063;28;19956;-70
2023/12/15 02:52:44;;;;;;;;;;;;;;;3.67;100.00;97736.63;5065970;28;20017;-70
2023/12/15 02:55:12;;;;;;;;;;;;;;;3.67;100.00;97747.00;5066056;28;20027;-70
2023/12/15 02:57:39;;;;;;;;;;;;;;;3.66;100.00;97748.78;5065839;28;19962;-73
2023/12/15 03:00:05;;;;;;;;;;;;;;;3.66;100.00;97747.97;5065808;28;19945;-66
2023/12/15 03:02:31;;;;;;;;;;;;;;;3.65;100.00;97752.34;5065751;28;20119;-66
2023/12/15 03:04:57;;;;;;;;;;;;;;;3.64;100.00;97747.31;5065479;28;19958;-66
2023/12/15 03:07:23;;;;;;;;;;;;;;;3.64;100.00;97748.09;5065192;28;19986;-66
2023/12/15 03:09:48;;;;;;;;;;;;;;;3.64;100.00;97753.28;5065402;28;19955;-66
2023/12/15 03:12:14;;;;;;;;;;;;;;;3.63;100.00;97751.69;5065525;28;20171;-66
2023/12/15 03:14:40;;;;;;;;;;;;;;;3.64;100.00;97755.91;5065450;28;19988;-65
2023/12/15 03:17:06;;;;;;;;;;;;;;;3.63;100.00;97756.88;5065640;28;19952;-73
2023/12/15 03:19:32;;;;;;;;;;;;;;;3.64;100.00;97774.06;5047441;28;19963;-73
2023/12/15 03:21:57;;;;;;;;;;;;;;;3.64;100.00;97770.66;5065525;28;19977;-73
2023/12/15 03:24:23;;;;;;;;;;;;;;;3.63;100.00;97771.59;5065401;28;19960;-73
2023/12/15 03:26:49;;;;;;;;;;;;;;;3.62;100.00;97768.19;5065390;28;19978;-73
2023/12/15 03:29:15;;;;;;;;;;;;;;;3.61;100.00;97761.38;5065561;28;20108;-73
2023/12/15 03:31:41;;;;;;;;;;;;;;;3.62;100.00;97763.00;5063812;28;20002;-73
2023/12/15 03:34:07;;;;;;;;;;;;;;;3.62;100.00;97772.56;5065089;28;19953;-72
2023/12/15 03:36:38;;;;;;;;;;;;;;;3.61;100.00;97766.56;5065062;28;20261;-74
2023/12/15 03:39:05;;;;;;;;;;;;;;;3.61;100.00;97779.53;5065235;28;19973;-74
2023/12/15 03:41:32;;;;;;;;;;;;;;;3.62;100.00;97785.53;5065030;28;19955;-74
2023/12/15 03:43:57;;;;;;;;;;;;;;;3.61;100.00;97783.88;5064841;28;19952;-75
2023/12/15 03:46:23;;;;;;;;;;;;;;;3.61;100.00;97783.88;5065029;28;19967;-74
2023/12/15 03:48:49;;;;;;;;;;;;;;;3.61;100.00;97783.88;5064909;28;20024;-74
2023/12/15 03:51:15;;;;;;;;;;;;;;;3.59;100.00;97786.66;5064863;28;19958;-73
2023/12/15 03:53:41;;;;;;;;;;;;;;;3.60;100.00;97787.44;5064924;28;19958;-70
2023/12/15 03:56:07;;;;;;;;;;;;;;;3.59;100.00;97791.84;5064848;28;19965;-71
2023/12/15 03:58:33;;;;;;;;;;;;;;;3.59;100.00;97789.22;5064517;28;19961;-70
2023/12/15 04:00:58;;;;;;;;;;;;;;;3.59;100.00;97791.00;5065110;28;20225;-70
2023/12/15 04:03:24;;;;;;;;;;;;;;;3.59;100.00;97796.19;5064369;28;20014;-70
2023/12/15 04:05:50;;;;;;;;;;;;;;;3.59;100.00;97809.16;5064144;28;19965;-70
2023/12/15 04:08:16;;;;;;;;;;;;;;;3.57;100.00;97803.28;5064254;28;19963;-70
2023/12/15 04:10:42;;;;;;;;;;;;;;;3.57;100.00;97806.72;5064409;28;19977;-74
2023/12/15 04:13:08;;;;;;;;;;;;;;;3.57;100.00;97817.09;5046536;28;19959;-70
2023/12/15 04:15:33;;;;;;;;;;;;;;;3.56;100.00;97818.03;5063947;28;19984;-70
2023/12/15 04:18:02;;;;;;;;;;;;;;;3.56;100.00;97817.22;5064330;28;19961;-70
2023/12/15 04:20:28;;;;;;;;;;;;;;;3.56;100.00;97817.22;5064393;28;19963;-69
2023/12/15 04:22:54;;;;;;;;;;;;;;;3.56;100.00;97820.63;5064435;28;19953;-70
2023/12/15 04:25:20;;;;;;;;;;;;;;;3.57;100.00;97821.44;5064374;28;20055;-70
2023/12/15 04:27:46;;;;;;;;;;;;;;;3.58;100.00;97825.69;5063955;28;20301;-66
2023/12/15 04:30:12;;;;;;;;;;;;;;;3.56;100.00;97819.81;5064486;28;19962;-70
2023/12/15 04:32:38;;;;;;;;;;;;;;;3.58;100.00;97823.09;5064367;28;19961;-73
2023/12/15 04:35:04;;;;;;;;;;;;;;;3.57;100.00;97829.22;5063987;28;19962;-74
2023/12/15 04:37:30;;;;;;;;;;;;;;;3.57;100.00;97834.41;5063944;28;19967;-73
2023/12/15 04:39:55;;;;;;;;;;;;;;;3.56;100.00;97835.38;5063954;28;20227;-73
2023/12/15 04:42:21;;;;;;;;;;;;;;;3.56;100.00;97841.38;5064012;28;20018;-73
2023/12/15 04:44:47;;;;;;;;;;;;;;;3.57;100.00;97844.78;5063818;28;19964;-73
2023/12/15 04:47:13;;;;;;;;;;;;;;;3.56;100.00;97854.34;5064103;28;19955;-72
2023/12/15 04:49:39;;;;;;;;;;;;;;;3.56;100.00;97859.53;5064277;28;20230;-74
2023/12/15 04:52:05;;;;;;;;;;;;;;;3.54;100.00;97845.88;5063232;28;19957;-75
2023/12/15 04:54:31;;;;;;;;;;;;;;;3.54;100.00;97850.25;5064189;28;19955;-75
2023/12/15 04:56:57;;;;;;;;;;;;;;;3.53;100.00;97856.41;5064205;28;20252;-74
2023/12/15 04:59:23;;;;;;;;;;;;;;;3.52;100.00;97857.38;5063604;28;20311;-76
2023/12/15 05:01:48;;;;;;;;;;;;;;;3.51;100.00;97853.13;5063877;28;19956;-75
2023/12/15 05:04:14;;;;;;;;;;;;;;;3.49;100.00;97858.47;5064334;28;20111;-75
2023/12/15 05:06:40;;;;;;;;;;;;;;;3.48;100.00;97864.59;5064011;28;19955;-70
2023/12/15 05:09:08;;;;;;;;;;;;;;;3.49;100.00;97875.81;5063654;28;19959;-71
2023/12/15 05:11:35;;;;;;;;;;;;;;;3.47;100.00;97869.94;5063782;28;19951;-70
2023/12/15 05:14:01;;;;;;;;;;;;;;;3.46;100.00;97879.47;5045991;28;19961;-70
2023/12/15 05:16:29;;;;;;;;;;;;;;;3.44;100.00;97866.66;5063882;28;19958;-70
2023/12/15 05:18:55;;;;;;;;;;;;;;;3.45;100.00;97883.03;5063929;28;19966;-70
2023/12/15 05:21:21;;;;;;;;;;;;;;;3.45;100.00;97885.63;5063910;28;19960;-70
2023/12/15 05:23:47;;;;;;;;;;;;;;;3.45;100.00;97885.63;5063400;28;19951;-70
2023/12/15 05:26:13;;;;;;;;;;;;;;;3.46;100.00;97895.03;5064083;28;20070;-73
2023/12/15 05:28:39;;;;;;;;;;;;;;;3.46;100.00;97897.63;5067321;28;19968;-73
2023/12/15 05:31:06;;;;;;;;;;;;;;;3.44;100.00;97894.34;5067199;28;19954;-73
2023/12/15 05:33:32;;;;;;;;;;;;;;;3.44;100.00;97897.78;5067564;28;20156;-73
2023/12/15 05:35:58;;;;;;;;;;;;;;;3.45;100.00;97912.38;5067697;28;19959;-72
2023/12/15 05:38:23;;;;;;;;;;;;;;;3.46;100.00;97918.38;5067039;28;19968;-73
2023/12/15 05:40:49;;;;;;;;;;;;;;;3.46;100.00;97926.16;5067516;28;19965;-73
2023/12/15 05:43:15;;;;;;;;;;;;;;;3.44;100.00;97931.50;5066330;28;20004;-74
2023/12/15 05:45:41;;;;;;;;;;;;;;;3.44;100.00;97936.69;5067117;28;19955;-69
2023/12/15 05:48:07;;;;;;;;;;;;;;;3.45;100.00;97942.69;5066973;28;19934;-69
2023/12/15 05:50:33;;;;;;;;;;;;;;;3.44;100.00;97954.84;5067035;28;20016;-69
2023/12/15 05:52:59;;;;;;;;;;;;;;;3.44;100.00;97956.59;5066700;28;19954;-68
2023/12/15 05:55:24;;;;;;;;;;;;;;;3.43;100.00;97954.97;5066992;28;19956;-70
2023/12/15 05:57:50;;;;;;;;;;;;;;;3.40;100.00;97958.66;5066960;28;20011;-69
2023/12/15 06:00:16;;;;;;;;;;;;;;;3.40;100.00;97960.41;5066921;28;20031;-71
2023/12/15 06:02:42;;;;;;;;;;;;;;;3.37;100.00;97956.31;5065724;28;19954;-73
2023/12/15 06:05:08;;;;;;;;;;;;;;;3.37;100.00;97961.50;5048788;28;19976;-73
2023/12/15 06:07:34;;;;;;;;;;;;;;;3.37;100.00;97961.50;5066990;28;20129;-73
2023/12/15 06:10:00;;;;;;;;;;;;;;;3.37;100.00;97963.28;5066481;28;19961;-73
2023/12/15 06:12:26;;;;;;;;;;;;;;;3.39;100.00;97967.38;5048485;28;19960;-72
2023/12/15 06:14:51;;;;;;;;;;;;;;;3.39;100.00;97972.56;5066561;28;19957;-73
2023/12/15 06:17:18;;;;;;;;;;;;;;;3.39;100.00;97972.56;5066520;28;19960;-73
2023/12/15 06:19:43;;;;;;;;;;;;;;;3.40;100.00;97976.81;5066563;28;19973;-70
2023/12/15 06:22:09;;;;;;;;;;;;;;;3.40;100.00;97982.00;5066598;28;19951;-75
2023/12/15 06:24:35;;;;;;;;;;;;;;;3.39;100.00;97992.50;5066509;28;20138;-74
2023/12/15 06:27:03;;;;;;;;;;;;;;;3.43;100.00;98004.25;5065970;28;19938;-74
2023/12/15 06:29:29;;;;;;;;;;;;;;;3.41;100.00;97999.19;5065824;28;20161;-75
2023/12/15 06:31:55;;;;;;;;;;;;;;;3.41;100.00;97994.00;5066564;28;20273;-74
2023/12/15 06:34:20;;;;;;;;;;;;;;;3.43;100.00;98007.66;5048777;28;19958;-75
2023/12/15 06:36:46;;;;;;;;;;;;;;;3.42;100.00;98007.78;5065986;28;20018;-66
2023/12/15 06:39:13;;;;;;;;;;;;;;;3.43;100.00;98010.25;5064812;28;19966;-74
2023/12/15 06:41:39;;;;;;;;;;;;;;;3.44;100.00;98008.47;5066096;28;20259;-74
2023/12/15 06:44:06;;;;;;;;;;;;;;;3.44;100.00;98011.06;5066291;28;19965;-75
2023/12/15 06:46:36;;;;;;;;;;;;;;;3.44;100.00;98011.06;5066277;28;20117;-74
2023/12/15 06:49:02;;;;;;;;;;;;;;;3.45;100.00;98020.50;5066211;28;20224;-74
2023/12/15 06:51:29;;;;;;;;;;;;;;;3.44;100.00;98022.28;5066022;28;19964;-75
2023/12/15 06:53:54;;;;;;;;;;;;;;;3.44;100.00;98031.81;5065937;28;19956;-74
2023/12/15 06:56:20;;;;;;;;;;;;;;;3.45;100.00;98031.69;5066215;28;19945;-73
2023/12/15 06:58:46;;;;;;;;;;;;;;;3.44;100.00;98037.84;5065766;28;19969;-69
2023/12/15 07:01:14;;;;;;;;;;;;;;;3.44;100.00;98040.44;5064983;28;20358;-69
2023/12/15 07:03:40;;;;;;;;;;;;;;;3.47;100.00;98051.50;5065414;28;20145;-69
2023/12/15 07:06:06;;;;;;;;;;;;;;;3.47;100.00;98046.31;5065448;28;19953;-69
2023/12/15 07:08:32;;;;;;;;;;;;;;;3.45;100.00;98046.44;5065311;28;19955;-69
2023/12/15 07:10:58;;;;;;;;;;;;;;;3.43;100.00;98056.94;5065736;28;20169;-69
2023/12/15 07:13:24;;;;;;;;;;;;;;;3.42;100.00;98057.91;5065265;28;20028;-73
2023/12/15 07:15:49;;;;;;;;;;;;;;;3.41;100.00;98060.63;5048335;28;20001;-73
2023/12/15 07:18:16;;;;;;;;;;;;;;;3.38;100.00;98066.91;5065426;28;20256;-73
2023/12/15 07:20:42;;;;;;;;;;;;;;;3.39;100.00;98073.72;5047445;28;19966;-73
2023/12/15 07:23:07;;;;;;;;;;;;;;;3.41;100.00;98078.78;5065419;28;19950;-73
2023/12/15 07:25:33;;;;;;;;;;;;;;;3.39;100.00;98078.09;5065640;28;19990;-73
2023/12/15 07:27:59;;;;;;;;;;;;;;;3.40;100.00;98074.53;5065581;28;19970;-73
2023/12/15 07:30:25;;;;;;;;;;;;;;;3.41;100.00;98079.59;5047275;28;19951;-74
2023/12/15 07:32:51;;;;;;;;;;;;;;;3.40;100.00;98075.38;5065188;28;19959;-75
2023/12/15 07:35:17;;;;;;;;;;;;;;;3.36;100.00;98081.75;5064791;28;19952;-71
2023/12/15 07:37:43;;;;;;;;;;;;;;;3.30;100.00;98081.44;5065020;28;19970;-70
2023/12/15 07:40:09;;;;;;;;;;;;;;;3.25;100.00;98081.84;5064829;28;20142;-71
2023/12/15 07:42:35;;;;;;;;;;;;;;;3.23;100.00;98088.94;5064929;28;20119;-70
2023/12/15 07:45:01;;;;;;;;;;;;;;;3.18;100.00;98091.94;5065185;28;19957;-70
2023/12/15 07:47:28;;;;;;;;;;;;;;;3.15;100.00;98099.97;5065013;28;19962;-70
2023/12/15 07:49:54;;;;;;;;;;;;;;;3.16;100.00;98104.19;5064657;28;19958;-75
2023/12/15 07:52:20;;;;;;;;;;;;;;;3.17;100.00;98092.88;5064941;28;19956;-73
2023/12/15 07:54:46;;;;;;;;;;;;;;;3.20;100.00;98104.75;5046738;28;19953;-66
2023/12/15 07:57:13;;;;;;;;;;;;;;;3.23;100.00;98101.91;5064233;28;19968;-66
2023/12/15 07:59:39;;;;;;;;;;;;;;;3.27;100.00;98105.88;5064758;28;19961;-66
2023/12/15 08:02:05;;;;;;;;;;;;;;;3.28;100.00;98104.13;5064363;28;20317;-66
2023/12/15 08:04:31;;;;;;;;;;;;;;;3.23;100.00;98107.09;5064334;28;19952;-66
2023/12/15 08:06:57;;;;;;;;;;;;;;;3.21;100.00;98120.19;5046462;28;19982;-66
2023/12/15 08:09:22;;;;;;;;;;;;;;;3.25;100.00;98125.94;5064465;28;19975;-68
2023/12/15 08:11:48;;;;;;;;;;;;;;;3.30;100.00;98122.94;5064438;28;19958;-70
2023/12/15 08:14:14;;;;;;;;;;;;;;;3.36;100.00;98127.59;5064366;28;19958;-70
2023/12/15 08:16:40;;;;;;;;;;;;;;;3.40;100.00;98126.38;5063845;28;19956;-71
2023/12/15 08:19:08;;;;;;;;;;;;;;;3.42;100.00;98122.75;5064403;28;20226;-71
2023/12/15 08:21:34;;;;;;;;;;;;;;;3.43;100.00;98131.34;5064471;28;19958;-71
2023/12/15 08:24:00;;;;;;;;;;;;;;;3.46;100.00;98125.88;5065143;28;19948;-71
2023/12/15 08:26:27;;;;;;;;;;;;;;;3.49;100.00;98132.59;5064448;28;19943;-66
2023/12/15 08:28:56;;;;;;;;;;;;;;;3.48;100.00;98133.53;5064409;28;19965;-72
2023/12/15 08:31:22;;;;;;;;;;;;;;;3.45;100.00;98151.00;5064334;28;20042;-69
2023/12/15 08:33:48;;;;;;;;;;;;;;;3.48;100.00;98149.09;5064029;28;19957;-68
2023/12/15 08:36:14;;;;;;;;;;;;;;;3.48;100.00;98152.50;5064227;28;19953;-68
2023/12/15 08:38:41;;;;;;;;;;;;;;;3.47;100.00;98155.25;5063965;28;19955;-68
2023/12/15 08:41:07;;;;;;;;;;;;;;;3.43;100.00;98159.88;5064063;28;19961;-69
2023/12/15 08:43:33;;;;;;;;;;;;;;;3.43;100.00;98168.47;5064232;28;19959;-68
2023/12/15 08:45:58;;;;;;;;;;;;;;;3.43;100.00;98165.88;5063826;28;19956;-70
2023/12/15 08:48:24;;;;;;;;;;;;;;;3.44;100.00;98185.69;5064185;28;19950;-73
2023/12/15 08:50:50;;;;;;;;;;;;;;;3.45;100.00;98181.31;5064228;28;20026;-73
2023/12/15 08:53:18;;;;;;;;;;;;;;;3.48;100.00;98180.22;5064099;28;19954;-73
2023/12/15 08:55:44;;;;;;;;;;;;;;;3.45;100.00;98174.34;5063645;28;19960;-73
2023/12/15 08:58:10;;;;;;;;;;;;;;;3.47;100.00;98176.81;5063629;28;20140;-73
2023/12/15 09:00:36;;;;;;;;;;;;;;;3.47;100.00;98176.81;5045904;28;20260;-73
2023/12/15 09:03:02;;;;;;;;;;;;;;;3.50;100.00;98179.13;5067415;28;19959;-74
2023/12/15 09:05:28;;;;;;;;;;;;;;;3.56;100.00;98180.38;5067506;28;20241;-76
2023/12/15 09:07:54;;;;;;;;;;;;;;;3.61;100.00;98180.81;5067859;28;19956;-70
2023/12/15 09:10:21;;;;;;;;;;;;;;;3.64;100.00;98202.13;5067798;28;19961;-71
2023/12/15 09:12:46;;;;;;;;;;;;;;;3.69;100.00;98196.53;5068137;28;19952;-70
2023/12/15 09:15:13;;;;;;;;;;;;;;;3.74;100.00;98196.16;5068334;28;19954;-70
2023/12/15 09:17:41;;;;;;;;;;;;;;;3.76;100.00;98199.44;5067733;28;19959;-70
2023/12/15 09:20:07;;;;;;;;;;;;;;;3.73;100.00;98192.72;5067981;28;19962;-71
2023/12/15 09:22:33;;;;;;;;;;;;;;;3.73;100.00;98194.50;5067974;28;20230;-75
2023/12/15 09:24:59;;;;;;;;;;;;;;;3.73;100.00;98200.53;5067741;28;19965;-68
2023/12/15 09:27:25;;;;;;;;;;;;;;;3.80;100.00;98203.41;5067720;28;19959;-68
2023/12/15 09:29:51;;;;;;;;;;;;;;;3.84;100.00;98205.63;5067320;28;20004;-69
2023/12/15 09:32:16;;;;;;;;;;;;;;;3.90;100.00;98208.63;5067527;28;19981;-69
2023/12/15 09:34:43;;;;;;;;;;;;;;;3.95;100.00;98211.66;5067255;28;20161;-68
2023/12/15 09:37:09;;;;;;;;;;;;;;;3.97;100.00;98210.59;5067255;28;20147;-70
2023/12/15 09:39:34;;;;;;;;;;;;;;;4.00;100.00;98212.91;5067075;28;20145;-69
2023/12/15 09:42:00;;;;;;;;;;;;;;;4.02;100.00;98213.59;5067813;28;19963;-66
2023/12/15 09:44:26;;;;;;;;;;;;;;;4.06;100.00;98211.56;5067413;28;19961;-73
2023/12/15 09:46:52;;;;;;;;;;;;;;;4.11;100.00;98211.97;5067265;28;19982;-73
2023/12/15 09:49:21;;;;;;;;;;;;;;;4.18;100.00;98205.31;5067314;28;20155;-75
2023/12/15 09:51:47;;;;;;;;;;;;;;;4.28;100.00;98213.09;5067173;28;19961;-73
2023/12/15 09:54:13;;;;;;;;;;;;;;;4.34;100.00;98209.16;5067180;28;19970;-73
2023/12/15 09:56:39;;;;;;;;;;;;;;;4.40;100.00;98206.00;5049483;28;19964;-73
2023/12/15 09:59:05;;;;;;;;;;;;;;;4.46;100.00;98210.66;5067030;28;19985;-65
2023/12/15 10:01:31;;;;;;;;;;;;;;;4.50;100.00;98203.44;5066433;28;20268;-73
2023/12/15 10:03:57;;;;;;;;;;;;;;;4.54;100.00;98212.59;5067028;28;19999;-69
2023/12/15 10:06:23;;;;;;;;;;;;;;;4.58;100.00;98209.59;5066628;28;20244;-69
2023/12/15 10:08:49;;;;;;;;;;;;;;;4.61;100.00;98217.09;5066715;28;19966;-69
2023/12/15 10:11:16;;;;;;;;;;;;;;;4.61;100.00;98211.09;5066692;28;19968;-69
2023/12/15 10:13:42;;;;;;;;;;;;;;;4.62;100.00;98220.50;5066532;28;19959;-69
2023/12/15 10:16:09;;;;;;;;;;;;;;;4.63;100.00;98217.78;5066832;28;19962;-70
2023/12/15 10:18:35;;;;;;;;;;;;;;;4.67;100.00;98211.34;5066779;28;19976;-69
2023/12/15 10:21:01;;;;;;;;;;;;;;;4.72;100.00;98228.31;5066509;28;20254;-70
2023/12/15 10:23:30;;;;;;;;;;;;;;;4.76;100.00;98232.28;5066401;28;20130;-69
2023/12/15 10:26:00;;;;;;;;;;;;;;;4.81;100.00;98240.50;5066154;28;19955;-70
2023/12/15 10:28:26;;;;;;;;;;;;;;;4.85;100.00;98244.47;5066155;28;19956;-70
2023/12/15 10:30:52;;;;;;;;;;;;;;;4.83;100.00;98234.22;5066289;28;19959;-70
2023/12/15 10:33:18;;;;;;;;;;;;;;;4.81;100.00;98241.34;5066194;28;19959;-70
2023/12/15 10:35:47;;;;;;;;;;;;;;;4.81;100.00;98246.53;5066512;28;19961;-70
2023/12/15 10:38:16;;;;;;;;;;;;;;;4.85;100.00;98245.28;5066202;28;19957;-72
2023/12/15 10:40:43;;;;;;;;;;;;;;;4.87;100.00;98250.34;5066147;28;19966;-73
2023/12/15 10:43:10;;;;;;;;;;;;;;;4.84;100.00;98246.25;5066127;28;20001;-74
2023/12/15 10:45:36;;;;;;;;;;;;;;;4.84;100.00;98250.63;5066220;28;20265;-73
2023/12/15 10:48:03;;;;;;;;;;;;;;;4.84;100.00;98242.81;5066089;28;20239;-73
2023/12/15 10:50:29;;;;;;;;;;;;;;;4.83;100.00;98257.63;5066135;28;19939;-73
2023/12/15 10:52:56;;;;;;;;;;;;;;;4.85;100.00;98258.28;5066290;28;20278;-73
2023/12/15 10:55:25;;;;;;;;;;;;;;;4.87;100.00;98253.78;5066298;28;19959;-73
2023/12/15 10:57:51;;;;;;;;;;;;;;;4.92;100.00;98262.94;5065686;28;20248;-67
2023/12/15 11:00:17;;;;;;;;;;;;;;;4.94;100.00;98256.66;5065296;28;20252;-66
2023/12/15 11:02:44;;;;;;;;;;;;;;;4.97;100.00;98248.56;5065578;28;19962;-66
2023/12/15 11:05:10;;;;;;;;;;;;;;;4.99;100.00;98251.84;5065944;28;19957;-67
2023/12/15 11:07:37;;;;;;;;;;;;;;;4.99;100.00;98254.44;5065576;28;19960;-66
2023/12/15 11:10:03;;;;;;;;;;;;;;;4.96;100.00;98251.31;5065147;28;19983;-66
2023/12/15 11:12:29;;;;;;;;;;;;;;;4.97;100.00;98250.34;5065654;28;19972;-71
2023/12/15 11:15:06;;;;;;;;;;;;;;;5.01;100.00;98256.91;5065694;28;19961;-70
2023/12/15 11:17:33;;;;;;;;;;;;;;;5.05;100.00;98246.09;5065845;28;19961;-66
2023/12/15 11:20:08;;;;;;;;;;;;;;;5.12;100.00;98251.56;5065281;28;19967;-66
2023/12/15 11:22:53;;;;;;;;;;;;;;;5.17;100.00;98259.78;5065136;28;19958;-66
2023/12/15 11:25:20;;;;;;;;;;;;;;;5.20;100.00;98258.69;5064497;28;20266;-67
2023/12/15 11:27:58;;;;;;;;;;;;;;;5.27;100.00;98258.00;5065311;28;20258;-66
2023/12/15 11:30:28;;;;;;;;;;;;;;;5.42;100.00;98257.56;5065294;28;19956;-69
2023/12/15 11:32:55;;;;;;;;;;;;;;;5.49;100.00;98256.84;5065279;28;20261;-74
2023/12/15 11:35:29;;;;;;;;;;;;;;;5.58;100.00;98264.75;5064693;28;19950;-71
2023/12/15 11:37:57;;;;;;;;;;;;;;;5.57;100.00;98263.13;5064623;28;19969;-71
2023/12/15 11:40:25;;;;;;;;;;;;;;;5.54;100.00;98259.00;5064819;28;20157;-71
2023/12/15 11:42:51;;;;;;;;;;;;;;;5.54;100.00;98268.59;5064703;28;19961;-71
2023/12/15 11:45:17;;;;;;;;;;;;;;;5.52;100.00;98260.13;5065061;28;19949;-70
2023/12/15 11:47:43;;;;;;;;;;;;;;;5.52;100.00;98262.72;5064718;28;19963;-70
2023/12/15 11:50:09;;;;;;;;;;;;;;;5.49;100.00;98267.25;5064944;28;19994;-75
2023/12/15 11:52:41;;;;;;;;;;;;;;;5.51;100.00;98267.13;5046955;28;19973;-70
2023/12/15 11:55:07;;;;;;;;;;;;;;;5.53;100.00;98254.78;5064754;28;19957;-70
2023/12/15 11:57:35;;;;;;;;;;;;;;;5.59;100.00;98267.22;5064739;28;20258;-70
2023/12/15 12:00:01;;;;;;;;;;;;;;;5.62;100.00;98248.72;5064615;28;19974;-71
2023/12/15 12:02:28;;;;;;;;;;;;;;;5.68;100.00;98260.34;5064533;28;19961;-70
2023/12/15 12:04:54;;;;;;;;;;;;;;;5.77;100.00;98256.88;5064716;28;19955;-70
2023/12/15 12:07:20;;;;;;;;;;;;;;;5.97;100.00;98265.50;5064210;28;20168;-66
2023/12/15 12:09:46;;;;;;;;;;;;;;;6.24;100.00;98262.06;5064287;28;20118;-70
2023/12/15 12:12:13;;;;;;;;;;;;;;;6.39;100.00;98253.78;5064328;28;19959;-73
2023/12/15 12:14:40;;;;;;;;;;;;;;;6.40;100.00;98252.78;5064191;28;19961;-73
2023/12/15 12:17:07;;;;;;;;;;;;;;;6.36;100.00;98249.66;5064370;28;19965;-73
2023/12/15 12:19:38;;;;;;;;;;;;;;;6.30;100.00;98240.66;5064343;28;19972;-73
2023/12/15 12:22:08;;;;;;;;;;;;;;;6.25;100.00;98231.63;5064748;28;19963;-73
2023/12/15 12:24:34;;;;;;;;;;;;;;;6.28;100.00;98253.00;5064702;28;19961;-73
2023/12/15 12:26:59;;;;;;;;;;;;;;;6.38;100.00;98242.50;5064648;28;19954;-73
2023/12/15 12:29:29;;;;;;;;;;;;;;;6.51;100.00;98239.56;5063868;28;19943;-70
2023/12/15 12:31:55;;;;;;;;;;;;;;;6.64;100.00;98239.19;5064222;28;19964;-70
2023/12/15 12:34:21;;;;;;;;;;;;;;;6.66;100.00;98251.13;5064664;28;19966;-70
2023/12/15 12:36:47;;;;;;;;;;;;;;;6.60;100.00;98254.31;5063373;28;19957;-70
2023/12/15 12:39:12;;;;;;;;;;;;;;;6.56;100.00;98252.16;5063920;28;19950;-70
2023/12/15 12:41:38;;;;;;;;;;;;;;;6.48;100.00;98258.09;5063944;28;20243;-70